sensor_id;sensor_type;location;lat;lon;timestamp;pressure;altitude;pressure_sealevel;temperature;humidity
32197;BME280;18697;42.770;23.400;2023-05-18T00:00:18;95101.94;;;15.05;86.41
32197;BME280;18697;42.770;23.400;2023-05-18T00:02:45;95101.91;;;14.99;85.88
32197;BME280;18697;42.770;23.400;2023-05-18T00:05:12;95104.44;;;14.92;86.04
32197;BME280;18697;42.770;23.400;2023-05-18T00:07:37;95096.31;;;14.88;86.30
32197;BME280;18697;42.770;23.400;2023-05-18T00:10:03;95104.72;;;14.83;85.81
32197;BME280;18697;42.770;23.400;2023-05-18T00:12:29;95099.09;;;14.77;85.93
32197;BME280;18697;42.770;23.400;2023-05-18T00:14:55;95099.34;;;14.73;86.61
32197;BME280;18697;42.770;23.400;2023-05-18T00:17:20;95100.13;;;14.74;86.67
32197;BME280;18697;42.770;23.400;2023-05-18T00:19:46;95105.69;;;14.68;86.65
32197;BME280;18697;42.770;23.400;2023-05-18T00:22:11;95107.22;;;14.69;86.58
32197;BME280;18697;42.770;23.400;2023-05-18T00:24:42;95101.59;;;14.64;86.60
32197;BME280;18697;42.770;23.400;2023-05-18T00:27:07;95103.59;;;14.52;86.99
32197;BME280;18697;42.770;23.400;2023-05-18T00:29:33;95112.22;;;14.49;87.39
32197;BME280;18697;42.770;23.400;2023-05-18T00:31:58;95114.88;;;14.26;88.89
32197;BME280;18697;42.770;23.400;2023-05-18T00:34:24;95110.28;;;14.23;90.02
32197;BME280;18697;42.770;23.400;2023-05-18T00:36:49;95112.31;;;14.23;91.00
32197;BME280;18697;42.770;23.400;2023-05-18T00:39:14;95111.06;;;14.24;91.38
32197;BME280;18697;42.770;23.400;2023-05-18T00:41:40;95118.94;;;14.25;91.42
32197;BME280;18697;42.770;23.400;2023-05-18T00:44:05;95121.72;;;14.25;92.07
32197;BME280;18697;42.770;23.400;2023-05-18T00:46:31;95116.19;;;14.31;92.55
32197;BME280;18697;42.770;23.400;2023-05-18T00:48:57;95119.53;;;14.40;92.48
32197;BME280;18697;42.770;23.400;2023-05-18T00:51:24;95119.84;;;14.48;92.70
32197;BME280;18697;42.770;23.400;2023-05-18T00:53:52;95111.19;;;14.46;92.04
32197;BME280;18697;42.770;23.400;2023-05-18T00:56:18;95110.22;;;14.55;92.48
32197;BME280;18697;42.770;23.400;2023-05-18T00:58:44;95106.66;;;14.60;92.18
32197;BME280;18697;42.770;23.400;2023-05-18T01:01:10;95107.94;;;14.59;92.19
32197;BME280;18697;42.770;23.400;2023-05-18T01:03:35;95104.88;;;14.57;92.08
32197;BME280;18697;42.770;23.400;2023-05-18T01:06:04;95101.34;;;14.62;92.07
32197;BME280;18697;42.770;23.400;2023-05-18T01:08:30;95111.00;;;14.66;91.85
32197;BME280;18697;42.770;23.400;2023-05-18T01:11:06;95108.97;;;14.67;91.49
32197;BME280;18697;42.770;23.400;2023-05-18T01:13:42;95098.06;;;14.69;91.57
32197;BME280;18697;42.770;23.400;2023-05-18T01:16:15;95105.19;;;14.75;91.13
32197;BME280;18697;42.770;23.400;2023-05-18T01:18:49;95105.47;;;14.77;90.87
32197;BME280;18697;42.770;23.400;2023-05-18T01:21:36;95100.88;;;14.74;90.80
32197;BME280;18697;42.770;23.400;2023-05-18T01:24:27;95109.53;;;14.76;90.42
32197;BME280;18697;42.770;23.400;2023-05-18T01:26:59;95111.06;;;14.77;90.10
32197;BME280;18697;42.770;23.400;2023-05-18T01:29:25;95118.69;;;14.83;90.00
32197;BME280;18697;42.770;23.400;2023-05-18T01:31:53;95112.06;;;14.86;89.47
32197;BME280;18697;42.770;23.400;2023-05-18T01:34:18;95108.25;;;14.89;89.34
32197;BME280;18697;42.770;23.400;2023-05-18T01:36:43;95099.38;;;14.90;88.91
32197;BME280;18697;42.770;23.400;2023-05-18T01:39:09;95103.69;;;14.91;89.01
32197;BME280;18697;42.770;23.400;2023-05-18T01:41:39;95099.88;;;14.89;89.32
32197;BME280;18697;42.770;23.400;2023-05-18T01:44:22;95109.53;;;14.88;88.93
32197;BME280;18697;42.770;23.400;2023-05-18T01:47:03;95109.03;;;14.89;88.86
32197;BME280;18697;42.770;23.400;2023-05-18T01:49:39;95111.81;;;14.89;88.92
32197;BME280;18697;42.770;23.400;2023-05-18T01:52:17;95104.44;;;14.86;88.88
32197;BME280;18697;42.770;23.400;2023-05-18T01:54:51;95120.47;;;14.91;88.86
32197;BME280;18697;42.770;23.400;2023-05-18T01:57:20;95117.16;;;14.93;89.03
32197;BME280;18697;42.770;23.400;2023-05-18T01:59:48;95117.91;;;14.88;89.02
32197;BME280;18697;42.770;23.400;2023-05-18T02:02:15;95119.44;;;14.89;88.97
32197;BME280;18697;42.770;23.400;2023-05-18T02:04:41;95116.63;;;14.89;89.31
32197;BME280;18697;42.770;23.400;2023-05-18T02:07:07;95115.13;;;14.88;89.27
32197;BME280;18697;42.770;23.400;2023-05-18T02:09:32;95112.84;;;14.81;88.94
32197;BME280;18697;42.770;23.400;2023-05-18T02:11:58;95115.38;;;14.78;89.15
32197;BME280;18697;42.770;23.400;2023-05-18T02:14:23;95121.47;;;14.83;89.37
32197;BME280;18697;42.770;23.400;2023-05-18T02:16:48;95123.00;;;14.89;89.21
32197;BME280;18697;42.770;23.400;2023-05-18T02:19:20;95122.75;;;14.82;88.72
32197;BME280;18697;42.770;23.400;2023-05-18T02:21:46;95127.06;;;14.77;88.75
32197;BME280;18697;42.770;23.400;2023-05-18T02:24:11;95118.13;;;14.67;89.31
32197;BME280;18697;42.770;23.400;2023-05-18T02:26:37;95119.94;;;14.76;89.58
32197;BME280;18697;42.770;23.400;2023-05-18T02:29:06;95126.28;;;14.76;89.34
32197;BME280;18697;42.770;23.400;2023-05-18T02:31:33;95126.81;;;14.81;89.17
32197;BME280;18697;42.770;23.400;2023-05-18T02:34:00;95121.19;;;14.69;89.24
32197;BME280;18697;42.770;23.400;2023-05-18T02:36:25;95121.22;;;14.75;89.23
32197;BME280;18697;42.770;23.400;2023-05-18T02:38:51;95119.41;;;14.72;89.28
32197;BME280;18697;42.770;23.400;2023-05-18T02:41:16;95122.22;;;14.77;89.23
32197;BME280;18697;42.770;23.400;2023-05-18T02:43:41;95131.09;;;14.70;88.67
32197;BME280;18697;42.770;23.400;2023-05-18T02:46:07;95127.31;;;14.73;89.24
32197;BME280;18697;42.770;23.400;2023-05-18T02:48:32;95136.44;;;14.68;88.54
32197;BME280;18697;42.770;23.400;2023-05-18T02:50:58;95127.78;;;14.66;89.26
32197;BME280;18697;42.770;23.400;2023-05-18T02:53:24;95138.47;;;14.68;89.62
32197;BME280;18697;42.770;23.400;2023-05-18T02:55:54;95142.78;;;14.69;89.83
32197;BME280;18697;42.770;23.400;2023-05-18T02:58:22;95148.13;;;14.72;89.47
32197;BME280;18697;42.770;23.400;2023-05-18T03:00:49;95158.31;;;14.81;89.03
32197;BME280;18697;42.770;23.400;2023-05-18T03:03:17;95156.81;;;14.80;89.13
32197;BME280;18697;42.770;23.400;2023-05-18T03:05:42;95161.38;;;14.89;88.60
32197;BME280;18697;42.770;23.400;2023-05-18T03:08:07;95163.41;;;14.83;88.56
32197;BME280;18697;42.770;23.400;2023-05-18T03:10:34;95157.31;;;14.78;88.67
32197;BME280;18697;42.770;23.400;2023-05-18T03:13:01;95167.19;;;14.68;88.46
32197;BME280;18697;42.770;23.400;2023-05-18T03:15:27;95172.50;;;14.66;89.30
32197;BME280;18697;42.770;23.400;2023-05-18T03:17:55;95170.44;;;14.61;89.85
32197;BME280;18697;42.770;23.400;2023-05-18T03:20:23;95168.69;;;14.64;89.94
32197;BME280;18697;42.770;23.400;2023-05-18T03:22:49;95178.81;;;14.61;89.90
32197;BME280;18697;42.770;23.400;2023-05-18T03:25:14;95188.75;;;14.62;89.61
32197;BME280;18697;42.770;23.400;2023-05-18T03:27:40;95179.31;;;14.60;89.36
32197;BME280;18697;42.770;23.400;2023-05-18T03:30:06;95170.66;;;14.52;89.29
32197;BME280;18697;42.770;23.400;2023-05-18T03:32:32;95183.59;;;14.50;89.34
32197;BME280;18697;42.770;23.400;2023-05-18T03:34:58;95181.75;;;14.41;89.88
32197;BME280;18697;42.770;23.400;2023-05-18T03:37:25;95188.16;;;14.47;89.76
32197;BME280;18697;42.770;23.400;2023-05-18T03:39:51;95189.38;;;14.40;90.26
32197;BME280;18697;42.770;23.400;2023-05-18T03:42:16;95193.47;;;14.45;90.02
32197;BME280;18697;42.770;23.400;2023-05-18T03:44:42;95187.84;;;14.39;89.95
32197;BME280;18697;42.770;23.400;2023-05-18T03:47:07;95193.22;;;14.43;89.88
32197;BME280;18697;42.770;23.400;2023-05-18T03:49:33;95198.06;;;14.48;89.76
32197;BME280;18697;42.770;23.400;2023-05-18T03:51:58;95189.94;;;14.50;90.14
32197;BME280;18697;42.770;23.400;2023-05-18T03:54:24;95193.81;;;14.58;90.20
32197;BME280;18697;42.770;23.400;2023-05-18T03:56:49;95204.72;;;14.56;89.73
32197;BME280;18697;42.770;23.400;2023-05-18T03:59:15;95195.56;;;14.56;89.53
32197;BME280;18697;42.770;23.400;2023-05-18T04:01:40;95212.09;;;14.59;89.43
32197;BME280;18697;42.770;23.400;2023-05-18T04:04:09;95213.38;;;14.58;89.23
32197;BME280;18697;42.770;23.400;2023-05-18T04:06:45;95211.38;;;14.64;89.01
32197;BME280;18697;42.770;23.400;2023-05-18T04:09:12;95217.47;;;14.68;89.05
32197;BME280;18697;42.770;23.400;2023-05-18T04:11:39;95215.97;;;14.73;88.56
32197;BME280;18697;42.770;23.400;2023-05-18T04:14:06;95213.94;;;14.73;88.32
32197;BME280;18697;42.770;23.400;2023-05-18T04:16:32;95219.00;;;14.69;88.26
32197;BME280;18697;42.770;23.400;2023-05-18T04:18:58;95218.28;;;14.74;88.35
32197;BME280;18697;42.770;23.400;2023-05-18T04:21:24;95211.69;;;14.77;88.62
32197;BME280;18697;42.770;23.400;2023-05-18T04:23:49;95222.38;;;14.85;88.31
32197;BME280;18697;42.770;23.400;2023-05-18T04:26:15;95228.47;;;14.89;88.52
32197;BME280;18697;42.770;23.400;2023-05-18T04:28:46;95231.53;;;14.91;88.53
32197;BME280;18697;42.770;23.400;2023-05-18T04:31:12;95216.53;;;14.88;88.16
32197;BME280;18697;42.770;23.400;2023-05-18T04:33:42;95224.91;;;14.88;87.74
32197;BME280;18697;42.770;23.400;2023-05-18T04:36:14;95223.66;;;14.95;88.71
32197;BME280;18697;42.770;23.400;2023-05-18T04:38:46;95222.41;;;14.96;88.71
32197;BME280;18697;42.770;23.400;2023-05-18T04:41:15;95219.88;;;14.98;88.81
32197;BME280;18697;42.770;23.400;2023-05-18T04:43:45;95224.16;;;14.93;88.96
32197;BME280;18697;42.770;23.400;2023-05-18T04:46:11;95224.16;;;14.93;89.18
32197;BME280;18697;42.770;23.400;2023-05-18T04:48:38;95230.03;;;14.95;88.85
32197;BME280;18697;42.770;23.400;2023-05-18T04:51:03;95234.84;;;14.95;88.68
32197;BME280;18697;42.770;23.400;2023-05-18T04:53:30;95241.47;;;14.97;88.98
32197;BME280;18697;42.770;23.400;2023-05-18T04:55:57;95238.66;;;14.92;88.76
32197;BME280;18697;42.770;23.400;2023-05-18T04:58:25;95237.91;;;14.97;88.48
32197;BME280;18697;42.770;23.400;2023-05-18T05:00:52;95244.50;;;14.94;88.67
32197;BME280;18697;42.770;23.400;2023-05-18T05:03:17;95248.06;;;14.94;88.71
32197;BME280;18697;42.770;23.400;2023-05-18T05:05:42;95254.97;;;14.99;89.09
32197;BME280;18697;42.770;23.400;2023-05-18T05:08:08;95255.16;;;14.90;89.06
32197;BME280;18697;42.770;23.400;2023-05-18T05:10:33;95259.22;;;14.89;88.73
32197;BME280;18697;42.770;23.400;2023-05-18T05:12:59;95261.75;;;14.81;89.28
32197;BME280;18697;42.770;23.400;2023-05-18T05:15:24;95278.56;;;14.92;89.36
32197;BME280;18697;42.770;23.400;2023-05-18T05:17:49;95272.75;;;14.96;89.41
32197;BME280;18697;42.770;23.400;2023-05-18T05:20:15;95279.31;;;14.87;89.48
32197;BME280;18697;42.770;23.400;2023-05-18T05:22:41;95271.19;;;14.89;89.39
32197;BME280;18697;42.770;23.400;2023-05-18T05:25:07;95273.97;;;14.89;89.24
32197;BME280;18697;42.770;23.400;2023-05-18T05:27:33;95277.84;;;14.97;89.94
32197;BME280;18697;42.770;23.400;2023-05-18T05:29:58;95271.47;;;14.97;89.94
32197;BME280;18697;42.770;23.400;2023-05-18T05:32:24;95280.91;;;15.05;89.73
32197;BME280;18697;42.770;23.400;2023-05-18T05:34:49;95285.25;;;15.06;88.84
32197;BME280;18697;42.770;23.400;2023-05-18T05:37:16;95288.81;;;15.06;88.98
32197;BME280;18697;42.770;23.400;2023-05-18T05:39:42;95281.38;;;14.92;89.18
32197;BME280;18697;42.770;23.400;2023-05-18T05:42:07;95278.09;;;14.99;89.64
32197;BME280;18697;42.770;23.400;2023-05-18T05:44:33;95286.47;;;14.99;89.49
32197;BME280;18697;42.770;23.400;2023-05-18T05:46:59;95291.72;;;14.75;91.46
32197;BME280;18697;42.770;23.400;2023-05-18T05:49:24;95290.22;;;14.79;90.58
32197;BME280;18697;42.770;23.400;2023-05-18T05:51:51;95285.81;;;14.67;91.26
32197;BME280;18697;42.770;23.400;2023-05-18T05:54:16;95292.44;;;14.70;92.66
32197;BME280;18697;42.770;23.400;2023-05-18T05:56:41;95292.47;;;14.75;92.33
32197;BME280;18697;42.770;23.400;2023-05-18T05:59:07;95293.25;;;14.76;92.13
32197;BME280;18697;42.770;23.400;2023-05-18T06:01:32;95295.19;;;14.59;91.87
32197;BME280;18697;42.770;23.400;2023-05-18T06:03:59;95291.41;;;14.67;92.51
32197;BME280;18697;42.770;23.400;2023-05-18T06:06:24;95293.28;;;14.82;92.12
32197;BME280;18697;42.770;23.400;2023-05-18T06:08:49;95288.50;;;14.51;92.65
32197;BME280;18697;42.770;23.400;2023-05-18T06:11:15;95295.94;;;14.59;91.62
32197;BME280;18697;42.770;23.400;2023-05-18T06:13:40;95301.84;;;14.67;90.58
32197;BME280;18697;42.770;23.400;2023-05-18T06:16:05;95297.69;;;14.57;93.05
32197;BME280;18697;42.770;23.400;2023-05-18T06:18:31;95299.72;;;14.56;91.97
32197;BME280;18697;42.770;23.400;2023-05-18T06:20:56;95305.56;;;14.53;86.63
32197;BME280;18697;42.770;23.400;2023-05-18T06:23:22;95302.44;;;14.45;82.84
32197;BME280;18697;42.770;23.400;2023-05-18T06:25:50;95304.25;;;14.48;81.25
32197;BME280;18697;42.770;23.400;2023-05-18T06:28:16;95308.13;;;14.56;81.95
32197;BME280;18697;42.770;23.400;2023-05-18T06:30:42;95313.94;;;14.53;81.10
32197;BME280;18697;42.770;23.400;2023-05-18T06:33:07;95309.66;;;14.57;81.07
32197;BME280;18697;42.770;23.400;2023-05-18T06:35:33;95306.34;;;14.59;80.16
32197;BME280;18697;42.770;23.400;2023-05-18T06:37:59;95316.81;;;14.64;81.16
32197;BME280;18697;42.770;23.400;2023-05-18T06:40:24;95314.78;;;14.64;79.43
32197;BME280;18697;42.770;23.400;2023-05-18T06:42:49;95322.13;;;14.62;77.00
32197;BME280;18697;42.770;23.400;2023-05-18T06:45:15;95323.66;;;14.63;76.78
32197;BME280;18697;42.770;23.400;2023-05-18T06:47:41;95330.31;;;14.71;77.17
32197;BME280;18697;42.770;23.400;2023-05-18T06:50:07;95329.81;;;14.72;76.96
32197;BME280;18697;42.770;23.400;2023-05-18T06:52:33;95343.88;;;14.84;79.27
32197;BME280;18697;42.770;23.400;2023-05-18T06:54:58;95348.69;;;14.83;76.50
32197;BME280;18697;42.770;23.400;2023-05-18T06:57:26;95350.72;;;14.83;77.04
32197;BME280;18697;42.770;23.400;2023-05-18T06:59:51;95357.53;;;14.76;77.72
32197;BME280;18697;42.770;23.400;2023-05-18T07:02:20;95360.13;;;14.79;75.94
32197;BME280;18697;42.770;23.400;2023-05-18T07:04:47;95362.91;;;14.79;76.28
32197;BME280;18697;42.770;23.400;2023-05-18T07:07:13;95367.72;;;14.79;76.89
32197;BME280;18697;42.770;23.400;2023-05-18T07:09:39;95369.16;;;14.63;74.61
32197;BME280;18697;42.770;23.400;2023-05-18T07:12:07;95374.53;;;14.72;75.43
32197;BME280;18697;42.770;23.400;2023-05-18T07:14:32;95367.91;;;14.70;76.21
32197;BME280;18697;42.770;23.400;2023-05-18T07:16:58;95367.72;;;14.79;77.62
32197;BME280;18697;42.770;23.400;2023-05-18T07:19:23;95369.81;;;14.90;75.59
32197;BME280;18697;42.770;23.400;2023-05-18T07:21:49;95371.81;;;14.84;74.76
32197;BME280;18697;42.770;23.400;2023-05-18T07:24:15;95376.66;;;14.89;76.52
32197;BME280;18697;42.770;23.400;2023-05-18T07:26:40;95362.88;;;14.74;75.11
32197;BME280;18697;42.770;23.400;2023-05-18T07:29:05;95390.09;;;14.79;74.43
32197;BME280;18697;42.770;23.400;2023-05-18T07:31:31;95388.06;;;14.79;73.69
32197;BME280;18697;42.770;23.400;2023-05-18T07:33:57;95386.00;;;14.74;74.89
32197;BME280;18697;42.770;23.400;2023-05-18T07:36:23;95381.34;;;14.66;72.85
32197;BME280;18697;42.770;23.400;2023-05-18T07:38:49;95381.59;;;14.62;74.78
32197;BME280;18697;42.770;23.400;2023-05-18T07:41:19;95384.38;;;14.62;74.44
32197;BME280;18697;42.770;23.400;2023-05-18T07:43:47;95384.38;;;14.62;75.63
32197;BME280;18697;42.770;23.400;2023-05-18T07:46:12;95394.84;;;14.67;73.86
32197;BME280;18697;42.770;23.400;2023-05-18T07:48:38;95391.31;;;14.72;73.47
32197;BME280;18697;42.770;23.400;2023-05-18T07:51:04;95391.09;;;14.76;74.13
32197;BME280;18697;42.770;23.400;2023-05-18T07:53:29;95396.94;;;14.78;73.56
32197;BME280;18697;42.770;23.400;2023-05-18T07:55:54;95403.56;;;14.81;74.01
32197;BME280;18697;42.770;23.400;2023-05-18T07:58:20;95399.47;;;14.76;72.93
32197;BME280;18697;42.770;23.400;2023-05-18T08:00:46;95401.50;;;14.75;74.76
32197;BME280;18697;42.770;23.400;2023-05-18T08:03:11;95409.56;;;14.68;73.52
32197;BME280;18697;42.770;23.400;2023-05-18T08:05:36;95420.53;;;14.71;73.59
32197;BME280;18697;42.770;23.400;2023-05-18T08:08:02;95408.75;;;14.62;72.71
32197;BME280;18697;42.770;23.400;2023-05-18T08:10:28;95422.25;;;14.63;72.93
32197;BME280;18697;42.770;23.400;2023-05-18T08:12:53;95422.97;;;14.58;73.35
32197;BME280;18697;42.770;23.400;2023-05-18T08:15:18;95418.63;;;14.57;72.80
32197;BME280;18697;42.770;23.400;2023-05-18T08:17:44;95426.81;;;14.61;72.79
32197;BME280;18697;42.770;23.400;2023-05-18T08:20:10;95422.69;;;14.56;71.74
32197;BME280;18697;42.770;23.400;2023-05-18T08:22:35;95427.91;;;14.43;72.15
32197;BME280;18697;42.770;23.400;2023-05-18T08:25:01;95430.06;;;14.33;71.41
32197;BME280;18697;42.770;23.400;2023-05-18T08:27:27;95429.31;;;14.33;71.64
32197;BME280;18697;42.770;23.400;2023-05-18T08:29:52;95431.28;;;14.27;72.57
32197;BME280;18697;42.770;23.400;2023-05-18T08:32:17;95439.94;;;14.29;73.04
32197;BME280;18697;42.770;23.400;2023-05-18T08:34:43;95448.59;;;14.31;72.42
32197;BME280;18697;42.770;23.400;2023-05-18T08:37:08;95437.84;;;14.24;72.71
32197;BME280;18697;42.770;23.400;2023-05-18T08:39:33;95447.28;;;14.26;73.53
32197;BME280;18697;42.770;23.400;2023-05-18T08:42:16;95455.88;;;14.23;72.23
32197;BME280;18697;42.770;23.400;2023-05-18T08:44:57;95454.81;;;14.20;72.28
32197;BME280;18697;42.770;23.400;2023-05-18T08:47:27;95450.22;;;14.17;72.45
32197;BME280;18697;42.770;23.400;2023-05-18T08:49:55;95455.38;;;14.24;74.20
32197;BME280;18697;42.770;23.400;2023-05-18T08:52:24;95445.34;;;14.12;74.61
32197;BME280;18697;42.770;23.400;2023-05-18T08:54:53;95462.22;;;14.23;74.58
32197;BME280;18697;42.770;23.400;2023-05-18T08:57:21;95468.69;;;14.35;74.93
32197;BME280;18697;42.770;23.400;2023-05-18T08:59:48;95466.94;;;14.37;73.71
32197;BME280;18697;42.770;23.400;2023-05-18T09:02:13;95474.75;;;14.54;73.17
32197;BME280;18697;42.770;23.400;2023-05-18T09:04:39;95469.44;;;14.56;72.55
32197;BME280;18697;42.770;23.400;2023-05-18T09:07:07;95468.94;;;14.57;71.45
32197;BME280;18697;42.770;23.400;2023-05-18T09:09:34;95485.06;;;14.42;72.43
32197;BME280;18697;42.770;23.400;2023-05-18T09:12:00;95476.09;;;14.38;72.21
32197;BME280;18697;42.770;23.400;2023-05-18T09:14:27;95479.09;;;14.34;73.95
32197;BME280;18697;42.770;23.400;2023-05-18T09:16:53;95485.88;;;14.28;71.81
32197;BME280;18697;42.770;23.400;2023-05-18T09:19:18;95484.84;;;14.25;72.51
32197;BME280;18697;42.770;23.400;2023-05-18T09:21:44;95478.44;;;14.19;72.65
32197;BME280;18697;42.770;23.400;2023-05-18T09:24:10;95482.53;;;14.24;73.23
32197;BME280;18697;42.770;23.400;2023-05-18T09:26:37;95487.91;;;14.27;73.67
32197;BME280;18697;42.770;23.400;2023-05-18T09:29:17;95486.66;;;14.28;72.68
32197;BME280;18697;42.770;23.400;2023-05-18T09:31:44;95494.38;;;14.39;73.68
32197;BME280;18697;42.770;23.400;2023-05-18T09:34:10;95482.44;;;14.38;73.27
32197;BME280;18697;42.770;23.400;2023-05-18T09:36:36;95490.81;;;14.38;73.03
32197;BME280;18697;42.770;23.400;2023-05-18T09:39:06;95491.41;;;14.42;72.49
32197;BME280;18697;42.770;23.400;2023-05-18T09:41:33;95489.22;;;14.32;73.33
32197;BME280;18697;42.770;23.400;2023-05-18T09:43:58;95503.84;;;14.41;73.69
32197;BME280;18697;42.770;23.400;2023-05-18T09:46:30;95502.91;;;14.50;73.45
32197;BME280;18697;42.770;23.400;2023-05-18T09:48:56;95508.94;;;14.43;72.30
32197;BME280;18697;42.770;23.400;2023-05-18T09:51:21;95509.88;;;14.40;72.11
32197;BME280;18697;42.770;23.400;2023-05-18T09:53:56;95517.66;;;14.30;72.00
32197;BME280;18697;42.770;23.400;2023-05-18T09:56:25;95516.47;;;14.37;73.06
32197;BME280;18697;42.770;23.400;2023-05-18T09:58:52;95519.41;;;14.48;73.13
32197;BME280;18697;42.770;23.400;2023-05-18T10:01:17;95522.03;;;14.57;73.70
32197;BME280;18697;42.770;23.400;2023-05-18T10:03:43;95526.22;;;14.67;73.37
32197;BME280;18697;42.770;23.400;2023-05-18T10:06:12;95529.28;;;14.69;73.01
32197;BME280;18697;42.770;23.400;2023-05-18T10:08:39;95528.06;;;14.76;72.64
32197;BME280;18697;42.770;23.400;2023-05-18T10:11:05;95536.28;;;14.85;72.68
32197;BME280;18697;42.770;23.400;2023-05-18T10:13:32;95535.81;;;14.92;72.92
32197;BME280;18697;42.770;23.400;2023-05-18T10:16:00;95544.69;;;14.85;72.57
32197;BME280;18697;42.770;23.400;2023-05-18T10:18:34;95540.69;;;14.97;72.63
32197;BME280;18697;42.770;23.400;2023-05-18T10:21:02;95535.97;;;15.09;72.52
32197;BME280;18697;42.770;23.400;2023-05-18T10:23:34;95541.13;;;15.16;71.84
32197;BME280;18697;42.770;23.400;2023-05-18T10:26:04;95544.91;;;15.13;70.38
32197;BME280;18697;42.770;23.400;2023-05-18T10:28:51;95552.56;;;15.18;70.51
32197;BME280;18697;42.770;23.400;2023-05-18T10:31:17;95556.09;;;15.13;70.92
32197;BME280;18697;42.770;23.400;2023-05-18T10:33:44;95563.78;;;14.92;74.47
32197;BME280;18697;42.770;23.400;2023-05-18T10:36:10;95562.69;;;14.58;76.60
32197;BME280;18697;42.770;23.400;2023-05-18T10:38:37;95571.53;;;14.51;75.13
32197;BME280;18697;42.770;23.400;2023-05-18T10:41:08;95568.50;;;14.55;73.88
32197;BME280;18697;42.770;23.400;2023-05-18T10:43:36;95565.22;;;14.56;72.61
32197;BME280;18697;42.770;23.400;2023-05-18T10:46:01;95563.09;;;14.71;71.56
32197;BME280;18697;42.770;23.400;2023-05-18T10:48:29;95575.94;;;14.84;71.65
32197;BME280;18697;42.770;23.400;2023-05-18T10:50:56;95577.28;;;14.94;71.59
32197;BME280;18697;42.770;23.400;2023-05-18T10:53:26;95579.03;;;14.91;71.26
32197;BME280;18697;42.770;23.400;2023-05-18T10:55:52;95587.56;;;15.08;72.48
32197;BME280;18697;42.770;23.400;2023-05-18T10:58:20;95593.44;;;15.10;71.87
32197;BME280;18697;42.770;23.400;2023-05-18T11:00:53;95591.38;;;15.05;71.09
32197;BME280;18697;42.770;23.400;2023-05-18T11:03:19;95594.09;;;15.25;70.83
32197;BME280;18697;42.770;23.400;2023-05-18T11:08:33;95591.22;;;15.45;70.51
32197;BME280;18697;42.770;23.400;2023-05-18T11:11:05;95592.09;;;15.31;69.67
32197;BME280;18697;42.770;23.400;2023-05-18T11:13:34;95590.97;;;15.49;70.20
32197;BME280;18697;42.770;23.400;2023-05-18T11:16:01;95592.28;;;15.54;70.24
32197;BME280;18697;42.770;23.400;2023-05-18T11:21:00;95598.88;;;15.51;71.78
32197;BME280;18697;42.770;23.400;2023-05-18T11:23:30;95602.03;;;15.64;72.21
32197;BME280;18697;42.770;23.400;2023-05-18T11:25:59;95612.56;;;15.43;71.83
32197;BME280;18697;42.770;23.400;2023-05-18T11:28:28;95621.56;;;15.27;74.65
32197;BME280;18697;42.770;23.400;2023-05-18T11:30:54;95621.81;;;14.51;77.28
32197;BME280;18697;42.770;23.400;2023-05-18T11:33:27;95621.38;;;14.38;79.71
32197;BME280;18697;42.770;23.400;2023-05-18T11:35:55;95624.22;;;14.23;81.44
32197;BME280;18697;42.770;23.400;2023-05-18T11:38:21;95624.84;;;14.12;83.05
32197;BME280;18697;42.770;23.400;2023-05-18T11:40:50;95626.97;;;13.97;83.66
32197;BME280;18697;42.770;23.400;2023-05-18T11:43:23;95623.66;;;13.64;83.32
32197;BME280;18697;42.770;23.400;2023-05-18T11:45:56;95628.38;;;13.72;84.67
32197;BME280;18697;42.770;23.400;2023-05-18T11:48:23;95625.13;;;13.59;85.78
32197;BME280;18697;42.770;23.400;2023-05-18T11:50:52;95623.41;;;13.47;86.09
32197;BME280;18697;42.770;23.400;2023-05-18T11:53:18;95628.50;;;13.48;85.79
32197;BME280;18697;42.770;23.400;2023-05-18T11:55:44;95632.44;;;13.42;86.56
32197;BME280;18697;42.770;23.400;2023-05-18T11:58:10;95630.91;;;13.56;87.35
32197;BME280;18697;42.770;23.400;2023-05-18T12:00:39;95628.75;;;13.65;88.30
32197;BME280;18697;42.770;23.400;2023-05-18T12:03:05;95624.75;;;13.52;86.99
32197;BME280;18697;42.770;23.400;2023-05-18T12:05:31;95624.84;;;13.57;87.55
32197;BME280;18697;42.770;23.400;2023-05-18T12:07:58;95624.91;;;13.63;87.70
32197;BME280;18697;42.770;23.400;2023-05-18T12:10:24;95622.69;;;13.67;87.09
32197;BME280;18697;42.770;23.400;2023-05-18T12:12:53;95629.06;;;13.67;88.09
32197;BME280;18697;42.770;23.400;2023-05-18T12:15:23;95629.53;;;13.66;89.35
32197;BME280;18697;42.770;23.400;2023-05-18T12:17:49;95641.44;;;13.81;89.97
32197;BME280;18697;42.770;23.400;2023-05-18T12:20:20;95638.94;;;13.83;91.53
32197;BME280;18697;42.770;23.400;2023-05-18T12:22:48;95656.41;;;13.98;91.49
32197;BME280;18697;42.770;23.400;2023-05-18T12:25:18;95665.97;;;14.12;89.88
32197;BME280;18697;42.770;23.400;2023-05-18T12:27:45;95662.28;;;14.21;90.57
32197;BME280;18697;42.770;23.400;2023-05-18T12:32:44;95656.91;;;14.17;89.54
32197;BME280;18697;42.770;23.400;2023-05-18T12:35:11;95655.38;;;14.16;90.55
32197;BME280;18697;42.770;23.400;2023-05-18T12:37:43;95652.25;;;14.29;89.21
32197;BME280;18697;42.770;23.400;2023-05-18T12:40:10;95659.16;;;14.33;88.33
32197;BME280;18697;42.770;23.400;2023-05-18T12:42:35;95657.91;;;14.34;88.29
32197;BME280;18697;42.770;23.400;2023-05-18T12:45:02;95658.94;;;14.37;87.59
32197;BME280;18697;42.770;23.400;2023-05-18T12:47:31;95657.16;;;14.54;87.86
32197;BME280;18697;42.770;23.400;2023-05-18T12:50:00;95662.63;;;14.63;85.06
32197;BME280;18697;42.770;23.400;2023-05-18T12:52:26;95659.81;;;14.63;83.11
32197;BME280;18697;42.770;23.400;2023-05-18T12:54:56;95666.53;;;14.71;83.75
32197;BME280;18697;42.770;23.400;2023-05-18T12:57:26;95660.78;;;14.81;84.68